Time;durP1;ratioP1;P1;durP2;ratioP2;P2;SDS_P1;SDS_P2;PMS_P1;PMS_P2;Temp;Humidity;BMP_temperature;BMP_pressure;BME280_temperature;BME280_humidity;BME280_pressure;Samples;Min_cycle;Max_cycle;Signal;HPM_P1;HPM_P2
2021/12/02 00:01:11;;;;;;;;;;;;;;;12.64;58.87;98237.84;4981888;27;128296;-66
2021/12/02 00:03:38;;;;;;;;;;;;;;;12.63;58.64;98234.34;5002973;27;99405;-58
2021/12/02 00:06:08;;;;;;;;;;;;;;;12.62;58.57;98229.28;5002110;27;98672;-67
2021/12/02 00:08:33;;;;;;;;;;;;;;;12.60;58.37;98240.44;4982448;27;116574;-66
2021/12/02 00:10:59;;;;;;;;;;;;;;;12.59;58.48;98246.16;5000493;27;127940;-57
2021/12/02 00:13:28;;;;;;;;;;;;;;;12.58;58.58;98236.50;5003666;27;97890;-58
2021/12/02 00:15:58;;;;;;;;;;;;;;;12.57;58.22;98246.50;5004556;27;99213;-67
2021/12/02 00:21:03;;;;;;;;;;;;;;;12.56;58.62;98263.84;5001507;27;118491;-58
2021/12/02 00:23:33;;;;;;;;;;;;;;;12.57;58.49;98245.69;5006400;27;97805;-68
2021/12/02 00:26:00;;;;;;;;;;;;;;;12.57;58.40;98251.09;5005208;27;98747;-67
2021/12/02 00:28:27;;;;;;;;;;;;;;;12.57;58.35;98248.41;5004361;27;122900;-58
2021/12/02 00:30:54;;;;;;;;;;;;;;;12.56;58.43;98255.72;4986316;27;98039;-68
2021/12/02 00:33:20;;;;;;;;;;;;;;;12.56;58.43;98242.22;4986522;27;114180;-58
2021/12/02 00:35:46;;;;;;;;;;;;;;;12.55;58.43;98234.44;4985848;27;122682;-57
2021/12/02 00:38:13;;;;;;;;;;;;;;;12.56;58.27;98254.94;4985285;27;128004;-59
2021/12/02 00:40:39;;;;;;;;;;;;;;;12.55;58.13;98248.75;4985991;27;124024;-58
2021/12/02 00:43:05;;;;;;;;;;;;;;;12.55;58.46;98259.56;4986010;27;116994;-58
2021/12/02 00:45:31;;;;;;;;;;;;;;;12.54;58.21;98260.69;5003143;27;128581;-67
2021/12/02 00:47:57;;;;;;;;;;;;;;;12.55;58.13;98262.25;4986970;27;103732;-67
2021/12/02 00:50:23;;;;;;;;;;;;;;;12.54;58.09;98260.69;4968325;27;127430;-58
2021/12/02 00:52:50;;;;;;;;;;;;;;;12.54;58.21;98263.38;5005194;27;97922;-58
2021/12/02 00:55:16;;;;;;;;;;;;;;;12.53;58.10;98270.69;4968842;27;128140;-57
2021/12/02 00:57:41;;;;;;;;;;;;;;;12.52;58.03;98274.50;4984763;27;99206;-58
2021/12/02 01:00:08;;;;;;;;;;;;;;;12.51;58.07;98272.94;5002622;27;127006;-58
2021/12/02 01:02:34;;;;;;;;;;;;;;;12.50;57.88;98279.47;5004964;27;112456;-68
2021/12/02 01:05:00;;;;;;;;;;;;;;;12.50;57.97;98281.41;5005307;27;98019;-68
2021/12/02 01:07:27;;;;;;;;;;;;;;;12.49;57.99;98287.91;5005377;27;102033;-58
2021/12/02 01:09:53;;;;;;;;;;;;;;;12.46;57.88;98278.56;4984168;27;126535;-58
2021/12/02 01:12:19;;;;;;;;;;;;;;;12.45;57.93;98281.56;4986542;27;99078;-67
2021/12/02 01:14:45;;;;;;;;;;;;;;;12.44;58.20;98282.72;5004721;27;98798;-57
2021/12/02 01:17:11;;;;;;;;;;;;;;;12.42;57.93;98284.97;5003543;27;113704;-59
2021/12/02 01:19:37;;;;;;;;;;;;;;;12.42;57.94;98295.78;5003064;27;128261;-59
2021/12/02 01:22:03;;;;;;;;;;;;;;;12.40;57.93;98276.38;5003734;27;98100;-68
2021/12/02 01:24:29;;;;;;;;;;;;;;;12.40;57.85;98285.28;4985357;27;98241;-59
2021/12/02 01:26:55;;;;;;;;;;;;;;;12.39;57.76;98289.13;4982482;28;122198;-68
2021/12/02 01:29:22;;;;;;;;;;;;;;;12.37;57.81;98291.34;4985465;27;126537;-68
2021/12/02 01:31:50;;;;;;;;;;;;;;;12.38;57.76;98286.72;5003794;27;98057;-59
2021/12/02 01:34:16;;;;;;;;;;;;;;;12.37;57.72;98304.84;5004308;27;98348;-67
2021/12/02 01:36:42;;;;;;;;;;;;;;;12.36;57.78;98305.19;4964372;28;127033;-68
2021/12/02 01:39:09;;;;;;;;;;;;;;;12.35;57.81;98298.22;4987531;27;97788;-59
2021/12/02 01:41:48;;;;;;;;;;;;;;;12.33;57.83;98312.03;5003353;27;107663;-66
2021/12/02 01:44:14;;;;;;;;;;;;;;;12.32;57.50;98315.88;5004149;27;115641;-68
2021/12/02 01:46:41;;;;;;;;;;;;;;;12.31;57.48;98305.41;5003620;27;99477;-67
2021/12/02 01:49:09;;;;;;;;;;;;;;;12.28;57.78;98315.72;5003948;27;98319;-68
2021/12/02 01:51:42;;;;;;;;;;;;;;;12.28;57.67;98315.72;5004603;27;97909;-58
2021/12/02 01:54:10;;;;;;;;;;;;;;;12.26;57.71;98314.47;5004849;27;98557;-60
2021/12/02 01:56:54;;;;;;;;;;;;;;;12.26;57.82;98303.66;5003805;27;98721;-59
2021/12/02 01:59:21;;;;;;;;;;;;;;;12.26;57.84;98317.16;4985784;27;121730;-68
2021/12/02 02:01:52;;;;;;;;;;;;;;;12.24;57.63;98316.72;4984443;27;97686;-58
2021/12/02 02:04:19;;;;;;;;;;;;;;;12.23;57.74;98312.44;5004415;27;97708;-59
2021/12/02 02:07:02;;;;;;;;;;;;;;;12.23;57.70;98325.94;4984228;27;119368;-59
2021/12/02 02:09:29;;;;;;;;;;;;;;;12.22;57.78;98327.06;5003033;27;98230;-59
2021/12/02 02:11:55;;;;;;;;;;;;;;;12.21;57.58;98331.66;5003356;27;98035;-61
2021/12/02 02:14:22;;;;;;;;;;;;;;;12.21;57.71;98320.88;5002771;27;99117;-68
2021/12/02 02:16:49;;;;;;;;;;;;;;;12.21;57.73;98317.38;4982468;28;98336;-58
2021/12/02 02:19:15;;;;;;;;;;;;;;;12.21;57.46;98326.25;4998973;27;97795;-68
2021/12/02 02:21:41;;;;;;;;;;;;;;;12.20;57.58;98319.28;5003563;27;98037;-58
2021/12/02 02:24:12;;;;;;;;;;;;;;;12.22;57.69;98318.94;5003471;27;98697;-59
2021/12/02 02:26:38;;;;;;;;;;;;;;;12.22;57.56;98321.66;5003700;27;98402;-58
2021/12/02 02:29:05;;;;;;;;;;;;;;;12.23;57.69;98325.94;5002330;27;98700;-59
2021/12/02 02:31:31;;;;;;;;;;;;;;;12.23;57.50;98325.94;5002194;27;114374;-58
2021/12/02 02:33:57;;;;;;;;;;;;;;;12.24;57.44;98330.22;5003987;27;98471;-67
2021/12/02 02:36:28;;;;;;;;;;;;;;;12.24;57.57;98328.31;5002833;27;98847;-58
2021/12/02 02:38:55;;;;;;;;;;;;;;;12.23;57.37;98312.44;5002407;27;99194;-58
2021/12/02 02:41:28;;;;;;;;;;;;;;;12.26;57.52;98325.28;5004377;27;97956;-68
2021/12/02 02:43:56;;;;;;;;;;;;;;;12.25;57.61;98327.19;5003291;27;98855;-59
2021/12/02 02:46:48;;;;;;;;;;;;;;;12.26;57.12;98334.19;5004022;27;98611;-68
2021/12/02 02:49:14;;;;;;;;;;;;;;;12.26;57.35;98342.28;4999460;27;126975;-58
2021/12/02 02:51:41;;;;;;;;;;;;;;;12.27;57.31;98340.38;5003056;27;97781;-68
2021/12/02 02:54:09;;;;;;;;;;;;;;;12.26;57.56;98345.00;5003075;27;98949;-68
2021/12/02 02:56:39;;;;;;;;;;;;;;;12.26;57.59;98350.41;5001795;27;97941;-58
2021/12/02 02:59:17;;;;;;;;;;;;;;;12.27;57.47;98359.28;5003423;27;97952;-68
2021/12/02 03:04:26;;;;;;;;;;;;;;;12.27;57.39;98359.28;4983984;27;98734;-65
2021/12/02 03:07:29;;;;;;;;;;;;;;;12.26;57.49;98360.38;5002447;27;98269;-59
2021/12/02 03:10:04;;;;;;;;;;;;;;;12.27;57.32;98356.59;4990974;27;98505;-59
2021/12/02 03:12:35;;;;;;;;;;;;;;;12.26;57.41;98357.69;4988316;27;97863;-59
2021/12/02 03:17:27;;;;;;;;;;;;;;;12.26;57.24;98365.78;4977729;27;118829;-67
2021/12/02 03:19:53;;;;;;;;;;;;;;;12.27;57.32;98375.50;5002581;27;123397;-58
2021/12/02 03:22:19;;;;;;;;;;;;;;;12.25;57.37;98378.50;5003630;27;115493;-58
2021/12/02 03:24:45;;;;;;;;;;;;;;;12.27;57.51;98375.50;5001268;27;128120;-58
2021/12/02 03:27:11;;;;;;;;;;;;;;;12.27;57.36;98380.91;5002070;27;98242;-58
2021/12/02 03:29:37;;;;;;;;;;;;;;;12.27;57.40;98383.59;4999603;27;122928;-58
2021/12/02 03:32:03;;;;;;;;;;;;;;;12.27;57.49;98389.00;4983908;27;108441;-67
2021/12/02 03:34:29;;;;;;;;;;;;;;;12.26;57.49;98387.41;5003957;27;98630;-59
2021/12/02 03:36:55;;;;;;;;;;;;;;;12.26;57.36;98395.50;5001085;27;128294;-59
2021/12/02 03:39:21;;;;;;;;;;;;;;;12.26;57.54;98399.03;5001031;27;98506;-67
2021/12/02 03:41:47;;;;;;;;;;;;;;;12.25;57.50;98404.72;5001037;27;117525;-68
2021/12/02 03:44:13;;;;;;;;;;;;;;;12.25;57.36;98400.13;4963436;28;123746;-58
2021/12/02 03:50:55;;;;;;;;;;;;;;;12.26;57.50;98427.91;5008223;27;97780;-68
2021/12/02 03:53:21;;;;;;;;;;;;;;;12.25;57.46;98429.84;5008412;27;98183;-67
2021/12/02 03:55:47;;;;;;;;;;;;;;;12.25;57.17;98431.75;5008671;27;126135;-67
2021/12/02 03:58:13;;;;;;;;;;;;;;;12.25;57.36;98445.25;5008272;27;127778;-58
2021/12/02 04:00:39;;;;;;;;;;;;;;;12.24;57.33;98452.56;5009710;27;127646;-58
2021/12/02 04:03:05;;;;;;;;;;;;;;;12.24;57.36;98440.97;5007311;27;116827;-58
2021/12/02 04:05:31;;;;;;;;;;;;;;;12.23;57.46;98440.19;5008598;27;98750;-59
2021/12/02 04:07:57;;;;;;;;;;;;;;;12.23;57.34;98442.88;5007592;27;128024;-58
2021/12/02 04:10:24;;;;;;;;;;;;;;;12.24;57.44;98459.88;5008186;27;126608;-68
2021/12/02 04:13:26;;;;;;;;;;;;;;;12.23;57.64;98461.00;5009223;27;97845;-67
2021/12/02 04:15:45;;;;;;;;;;;;;;;12.22;57.51;98470.22;5004414;27;98875;-58
2021/12/02 04:18:11;;;;;;;;;;;;;;;12.22;57.43;98481.84;5008734;27;98120;-68
2021/12/02 04:20:37;;;;;;;;;;;;;;;12.22;57.60;98489.13;5008846;27;126364;-67
2021/12/02 04:23:03;;;;;;;;;;;;;;;12.22;57.39;98492.63;5008641;27;97707;-68
2021/12/02 04:25:29;;;;;;;;;;;;;;;12.22;57.47;98483.72;5007751;27;127632;-68
2021/12/02 04:27:55;;;;;;;;;;;;;;;12.22;57.88;98489.13;5007538;27;122322;-58
2021/12/02 04:30:25;;;;;;;;;;;;;;;12.21;57.50;98482.94;5007482;27;127369;-67
2021/12/02 04:32:51;;;;;;;;;;;;;;;12.21;57.28;98501.03;5008148;27;112727;-67
2021/12/02 04:35:17;;;;;;;;;;;;;;;12.20;57.40;98505.66;5007547;27;120233;-58
2021/12/02 04:37:44;;;;;;;;;;;;;;;12.18;57.49;98505.22;4990353;27;127252;-58
2021/12/02 04:40:11;;;;;;;;;;;;;;;12.19;57.57;98504.09;4990320;27;97899;-59
2021/12/02 04:42:37;;;;;;;;;;;;;;;12.18;57.54;98510.59;5008428;27;98978;-67
2021/12/02 04:45:04;;;;;;;;;;;;;;;12.17;57.51;98514.41;5007903;27;115527;-67
2021/12/02 04:47:30;;;;;;;;;;;;;;;12.17;57.59;98519.81;5007440;27;98762;-59
2021/12/02 04:49:56;;;;;;;;;;;;;;;12.16;57.43;98520.94;5007461;27;129004;-68
2021/12/02 04:52:21;;;;;;;;;;;;;;;12.15;57.52;98522.06;5007824;27;116863;-58
2021/12/02 04:54:47;;;;;;;;;;;;;;;12.14;57.42;98517.75;5007065;27;129166;-58
2021/12/02 04:57:13;;;;;;;;;;;;;;;12.13;57.39;98521.56;5008374;27;128732;-67
2021/12/02 04:59:39;;;;;;;;;;;;;;;12.11;57.55;98528.44;4987346;27;127795;-58
2021/12/02 05:02:05;;;;;;;;;;;;;;;12.09;57.35;98526.03;5003040;27;117344;-59
2021/12/02 05:04:31;;;;;;;;;;;;;;;12.09;57.49;98531.44;4984847;27;122358;-58
2021/12/02 05:06:57;;;;;;;;;;;;;;;12.06;57.52;98537.47;4985844;27;128275;-68
2021/12/02 05:09:23;;;;;;;;;;;;;;;12.06;57.79;98542.88;4984686;27;110292;-59
2021/12/02 05:11:49;;;;;;;;;;;;;;;12.04;57.87;98542.44;5004209;27;118440;-58
2021/12/02 05:14:15;;;;;;;;;;;;;;;12.02;57.73;98545.47;5003738;27;127501;-67
2021/12/02 05:16:41;;;;;;;;;;;;;;;12.02;57.86;98541.94;4986198;27;127470;-58
2021/12/02 05:19:07;;;;;;;;;;;;;;;12.01;57.57;98549.25;5004972;27;98000;-58
2021/12/02 05:21:33;;;;;;;;;;;;;;;12.00;57.87;98544.19;5004123;27;97773;-58
2021/12/02 05:23:58;;;;;;;;;;;;;;;11.99;57.71;98539.91;5003164;27;125749;-68
2021/12/02 05:26:25;;;;;;;;;;;;;;;11.98;57.88;98549.09;5003677;27;127699;-68
2021/12/02 05:28:51;;;;;;;;;;;;;;;11.97;57.99;98552.94;5003584;27;114609;-59
2021/12/02 05:31:17;;;;;;;;;;;;;;;11.95;57.65;98547.06;5004402;27;114103;-68
2021/12/02 05:33:43;;;;;;;;;;;;;;;11.96;57.76;98559.44;5004779;27;126667;-66
2021/12/02 05:36:09;;;;;;;;;;;;;;;11.96;57.85;98564.84;4986112;27;128038;-68
2021/12/02 05:38:35;;;;;;;;;;;;;;;11.94;57.71;98565.16;5007742;27;99518;-67
2021/12/02 05:41:01;;;;;;;;;;;;;;;11.94;57.81;98564.38;5006325;27;97839;-67
2021/12/02 05:43:27;;;;;;;;;;;;;;;11.93;57.96;98557.38;5005069;27;99024;-68
2021/12/02 05:45:53;;;;;;;;;;;;;;;11.93;57.93;98563.56;5005271;27;98056;-67
2021/12/02 05:48:19;;;;;;;;;;;;;;;11.93;57.69;98562.78;4986788;27;98201;-67
2021/12/02 05:50:45;;;;;;;;;;;;;;;11.93;58.02;98566.28;4987957;27;115531;-67
2021/12/02 05:53:11;;;;;;;;;;;;;;;11.91;57.75;98565.81;5004863;27;117545;-67
2021/12/02 05:55:37;;;;;;;;;;;;;;;11.91;58.15;98555.03;5006708;27;107210;-68
2021/12/02 05:58:03;;;;;;;;;;;;;;;11.92;57.98;98555.81;5004527;27;126773;-68
2021/12/02 06:00:29;;;;;;;;;;;;;;;11.91;57.98;98565.03;5005185;27;102221;-68
2021/12/02 06:02:55;;;;;;;;;;;;;;;11.90;57.72;98563.41;5005189;27;98818;-68
2021/12/02 06:05:21;;;;;;;;;;;;;;;11.89;57.83;98553.75;5004699;27;125660;-68
2021/12/02 06:07:50;;;;;;;;;;;;;;;11.89;58.02;98565.34;5007010;27;97809;-67
2021/12/02 06:10:17;;;;;;;;;;;;;;;11.89;58.14;98564.53;4988543;27;97842;-69
2021/12/02 06:12:43;;;;;;;;;;;;;;;11.88;57.83;98571.06;4986318;27;100857;-68
2021/12/02 06:15:09;;;;;;;;;;;;;;;11.87;57.86;98561.34;4987886;27;98114;-67
2021/12/02 06:17:36;;;;;;;;;;;;;;;11.86;57.62;98568.66;5003186;27;126741;-67
2021/12/02 06:20:06;;;;;;;;;;;;;;;11.85;57.67;98572.50;5003745;27;98073;-59
2021/12/02 06:22:32;;;;;;;;;;;;;;;11.84;57.80;98581.72;5002132;27;103686;-67
2021/12/02 06:27:42;;;;;;;;;;;;;;;11.83;57.96;98582.84;5002012;27;97958;-67
2021/12/02 06:30:09;;;;;;;;;;;;;;;11.82;57.74;98583.09;5002717;27;113597;-67
2021/12/02 06:32:35;;;;;;;;;;;;;;;11.80;57.58;98602.31;5001173;27;123219;-58
2021/12/02 06:35:00;;;;;;;;;;;;;;;11.79;57.90;98604.25;5002684;27;127319;-59
2021/12/02 06:37:26;;;;;;;;;;;;;;;11.79;57.82;98614.25;5002201;27;126523;-58
2021/12/02 06:39:52;;;;;;;;;;;;;;;11.78;57.85;98618.81;5003161;27;107930;-59
2021/12/02 06:42:18;;;;;;;;;;;;;;;11.79;57.85;98628.53;4983745;27;127217;-67
2021/12/02 06:44:44;;;;;;;;;;;;;;;11.79;57.67;98642.03;5002419;27;127190;-58
2021/12/02 06:47:10;;;;;;;;;;;;;;;11.80;57.54;98650.91;5001630;27;127484;-58
2021/12/02 06:49:38;;;;;;;;;;;;;;;11.78;57.83;98648.53;4984958;27;98110;-67
2021/12/02 06:52:09;;;;;;;;;;;;;;;11.78;57.51;98656.63;4982145;27;98591;-58
2021/12/02 06:54:35;;;;;;;;;;;;;;;11.79;57.50;98654.75;5000562;27;98384;-58
2021/12/02 06:57:01;;;;;;;;;;;;;;;11.80;57.66;98659.00;5000185;27;122576;-68
2021/12/02 06:59:27;;;;;;;;;;;;;;;11.82;57.65;98672.19;4999167;27;117641;-68
2021/12/02 07:01:53;;;;;;;;;;;;;;;11.81;57.52;98660.59;4980610;27;127079;-67
2021/12/02 07:04:18;;;;;;;;;;;;;;;11.83;57.51;98665.66;4999155;27;126920;-68
2021/12/02 07:06:44;;;;;;;;;;;;;;;11.83;57.57;98668.38;4997299;27;127668;-58
2021/12/02 07:09:10;;;;;;;;;;;;;;;11.85;57.41;98676.97;4981751;27;98261;-58
2021/12/02 07:11:37;;;;;;;;;;;;;;;11.87;57.54;98690.94;4998357;27;98636;-58
2021/12/02 07:14:06;;;;;;;;;;;;;;;11.88;57.44;98689.84;4998979;27;98702;-58
2021/12/02 07:16:32;;;;;;;;;;;;;;;11.88;57.46;98698.75;4998996;27;98675;-66
2021/12/02 07:18:59;;;;;;;;;;;;;;;11.90;57.49;98695.72;4982137;27;99667;-58
2021/12/02 07:21:26;;;;;;;;;;;;;;;11.91;57.37;98700.81;4998922;27;99952;-68
2021/12/02 07:23:52;;;;;;;;;;;;;;;11.92;57.17;98698.91;4997967;27;98340;-68
2021/12/02 07:26:18;;;;;;;;;;;;;;;11.92;57.38;98705.09;4999080;27;98286;-68
2021/12/02 07:28:45;;;;;;;;;;;;;;;11.92;57.21;98698.91;4979552;27;117843;-67
2021/12/02 07:31:11;;;;;;;;;;;;;;;11.94;57.33;98704.75;4998443;27;98424;-58
2021/12/02 07:33:37;;;;;;;;;;;;;;;11.94;57.37;98700.16;4998644;27;98596;-58
2021/12/02 07:36:04;;;;;;;;;;;;;;;11.96;57.53;98702.56;4998708;27;98469;-60
2021/12/02 07:38:30;;;;;;;;;;;;;;;11.96;57.24;98697.94;4999072;27;97796;-68
2021/12/02 07:41:02;;;;;;;;;;;;;;;11.98;57.31;98713.81;4963322;27;100324;-67
2021/12/02 07:43:29;;;;;;;;;;;;;;;12.00;57.44;98706.19;4993413;27;98520;-59
2021/12/02 07:45:57;;;;;;;;;;;;;;;11.99;57.56;98701.91;4994643;27;114152;-59
2021/12/02 07:48:23;;;;;;;;;;;;;;;12.04;57.28;98712.56;4996808;27;97943;-58
2021/12/02 07:50:49;;;;;;;;;;;;;;;12.06;57.36;98715.72;4996190;27;126631;-59
2021/12/02 07:53:15;;;;;;;;;;;;;;;12.08;57.33;98710.00;4996651;27;101034;-59
2021/12/02 07:55:41;;;;;;;;;;;;;;;12.10;57.15;98719.38;4995384;27;128196;-59
2021/12/02 07:58:08;;;;;;;;;;;;;;;12.13;57.28;98716.03;4978467;27;98029;-58
2021/12/02 08:00:34;;;;;;;;;;;;;;;12.14;57.20;98711.41;4995686;27;122620;-59
2021/12/02 08:03:00;;;;;;;;;;;;;;;12.18;57.20;98726.69;4996954;27;98026;-58
2021/12/02 08:05:26;;;;;;;;;;;;;;;12.21;57.25;98736.03;4978209;27;109275;-58
2021/12/02 08:07:53;;;;;;;;;;;;;;;12.28;57.08;98739.06;4996570;27;98045;-58
2021/12/02 08:10:18;;;;;;;;;;;;;;;12.41;56.88;98745.38;4977464;27;116718;-58
2021/12/02 08:12:49;;;;;;;;;;;;;;;12.50;56.75;98748.91;4994699;27;128978;-59
2021/12/02 08:15:18;;;;;;;;;;;;;;;12.55;56.80;98756.81;4997312;27;98624;-58
2021/12/02 08:17:44;;;;;;;;;;;;;;;12.62;56.84;98750.94;4997016;27;97978;-59
2021/12/02 08:20:10;;;;;;;;;;;;;;;12.65;56.75;98769.97;4993135;27;98913;-58
2021/12/02 08:22:36;;;;;;;;;;;;;;;12.72;56.39;98759.47;4977817;27;98836;-59
2021/12/02 08:25:02;;;;;;;;;;;;;;;12.82;56.56;98776.47;4995839;27;127459;-58
2021/12/02 08:27:28;;;;;;;;;;;;;;;12.95;56.56;98770.06;4993653;27;112975;-59
2021/12/02 08:29:54;;;;;;;;;;;;;;;13.07;56.01;98774.81;4976761;27;128357;-59
2021/12/02 08:32:20;;;;;;;;;;;;;;;13.16;56.22;98778.25;4995940;27;113581;-58
2021/12/02 08:34:46;;;;;;;;;;;;;;;13.21;55.83;98768.06;4996479;27;98100;-58
2021/12/02 08:37:12;;;;;;;;;;;;;;;13.35;55.93;98772.47;4999341;27;118189;-58
2021/12/02 08:39:40;;;;;;;;;;;;;;;14.04;54.81;98784.81;5000004;27;99079;-59
2021/12/02 08:42:08;;;;;;;;;;;;;;;15.43;52.32;98782.25;4981728;27;98111;-59
2021/12/02 08:44:37;;;;;;;;;;;;;;;16.00;51.89;98783.25;5000323;27;98064;-58
2021/12/02 08:47:04;;;;;;;;;;;;;;;16.58;51.65;98791.06;5000733;27;97873;-58
2021/12/02 08:49:30;;;;;;;;;;;;;;;16.95;51.51;98801.78;5000696;27;98349;-59
2021/12/02 08:51:56;;;;;;;;;;;;;;;17.41;51.35;98808.41;4997967;27;128073;-59
2021/12/02 08:54:22;;;;;;;;;;;;;;;17.42;51.90;98815.41;4999070;27;120527;-58
2021/12/02 08:56:48;;;;;;;;;;;;;;;17.15;52.79;98826.03;4981379;27;97864;-59
2021/12/02 08:59:16;;;;;;;;;;;;;;;16.88;53.35;98818.72;5000473;27;98372;-59
2021/12/02 09:01:42;;;;;;;;;;;;;;;16.68;53.71;98823.22;4999895;27;98983;-58
2021/12/02 09:04:08;;;;;;;;;;;;;;;16.47;53.99;98837.00;4979684;27;127295;-58
2021/12/02 09:06:34;;;;;;;;;;;;;;;16.41;53.77;98831.00;4981748;27;98094;-59
2021/12/02 09:09:00;;;;;;;;;;;;;;;16.82;53.28;98829.06;5000705;27;98469;-58
2021/12/02 09:11:27;;;;;;;;;;;;;;;17.03;53.01;98822.59;4981138;27;98464;-59
2021/12/02 09:13:58;;;;;;;;;;;;;;;17.16;52.96;98824.88;4998777;27;100061;-59
2021/12/02 09:16:24;;;;;;;;;;;;;;;17.29;52.85;98831.06;4999853;27;97899;-59
2021/12/02 09:18:50;;;;;;;;;;;;;;;17.39;53.04;98835.19;4999190;27;122214;-59
2021/12/02 09:21:16;;;;;;;;;;;;;;;17.47;53.16;98841.59;4999855;27;98921;-58
2021/12/02 09:23:42;;;;;;;;;;;;;;;17.50;53.31;98830.78;4997997;27;129397;-59
2021/12/02 09:26:08;;;;;;;;;;;;;;;17.55;53.34;98835.97;5001243;27;116396;-59
2021/12/02 09:28:34;;;;;;;;;;;;;;;17.59;53.61;98845.00;5002450;27;98249;-59
2021/12/02 09:31:00;;;;;;;;;;;;;;;17.63;53.58;98831.47;5000469;27;128841;-58
2021/12/02 09:33:26;;;;;;;;;;;;;;;17.60;53.75;98830.25;4982683;27;113638;-68
2021/12/02 09:35:52;;;;;;;;;;;;;;;17.58;53.73;98832.53;5000673;27;98163;-68
2021/12/02 09:38:18;;;;;;;;;;;;;;;17.54;54.18;98826.22;5000927;27;98388;-68
2021/12/02 09:40:44;;;;;;;;;;;;;;;17.50;54.36;98836.25;5000665;27;129619;-68
2021/12/02 09:43:12;;;;;;;;;;;;;;;17.43;54.37;98836.06;5001585;27;97861;-59
2021/12/02 09:45:39;;;;;;;;;;;;;;;17.33;54.65;98825.69;4981379;27;97969;-59
2021/12/02 09:48:05;;;;;;;;;;;;;;;17.22;54.81;98838.25;4999189;27;98221;-59
2021/12/02 09:50:34;;;;;;;;;;;;;;;17.10;54.95;98829.03;4999431;27;99499;-59
2021/12/02 09:53:13;;;;;;;;;;;;;;;16.96;55.25;98844.19;4999029;27;98071;-58
2021/12/02 09:58:06;;;;;;;;;;;;;;;16.65;55.57;98849.16;4997066;27;122099;-58
2021/12/02 10:00:44;;;;;;;;;;;;;;;16.52;55.72;98849.56;4999137;27;97979;-59
2021/12/02 10:06:04;;;;;;;;;;;;;;;16.25;55.95;98849.19;4996796;27;97788;-58
2021/12/02 10:08:35;;;;;;;;;;;;;;;16.12;55.95;98845.72;4998227;27;98856;-58
2021/12/02 10:11:03;;;;;;;;;;;;;;;16.00;56.13;98855.81;4998848;27;98699;-58
2021/12/02 10:13:49;;;;;;;;;;;;;;;15.89;55.88;98858.19;4999204;27;97847;-58
2021/12/02 10:21:30;;;;;;;;;;;;;;;15.55;56.41;98854.75;4996136;27;98692;-58
2021/12/02 10:24:03;;;;;;;;;;;;;;;15.46;56.42;98856.81;4998122;27;98012;-58
2021/12/02 10:26:30;;;;;;;;;;;;;;;15.37;56.59;98859.63;4998954;27;97783;-59
2021/12/02 10:28:56;;;;;;;;;;;;;;;15.29;56.54;98865.97;4961887;27;127380;-58
2021/12/02 10:31:24;;;;;;;;;;;;;;;15.22;56.63;98865.72;4978640;27;127422;-58
2021/12/02 10:33:54;;;;;;;;;;;;;;;15.15;56.66;98868.97;4998502;27;97837;-58
2021/12/02 10:36:28;;;;;;;;;;;;;;;15.09;56.71;98869.50;4998296;27;97957;-58
2021/12/02 10:39:00;;;;;;;;;;;;;;;15.01;56.49;98871.19;4998272;27;98306;-58
2021/12/02 10:41:28;;;;;;;;;;;;;;;14.95;56.55;98870.59;4998042;27;99195;-58
2021/12/02 10:44:14;;;;;;;;;;;;;;;14.90;56.94;98876.25;4998832;27;98016;-58
2021/12/02 10:46:54;;;;;;;;;;;;;;;14.86;56.87;98878.06;4998220;27;98078;-59
2021/12/02 10:49:22;;;;;;;;;;;;;;;14.81;56.82;98874.72;4999031;27;98813;-58
2021/12/02 10:51:52;;;;;;;;;;;;;;;14.76;56.95;98883.09;4997690;27;99951;-58
2021/12/02 10:54:25;;;;;;;;;;;;;;;14.71;56.71;98879.47;4997849;27;97977;-59
2021/12/02 10:56:54;;;;;;;;;;;;;;;14.68;56.68;98868.47;4997820;27;97926;-59
2021/12/02 10:59:33;;;;;;;;;;;;;;;14.66;56.73;98868.81;4997561;27;103889;-59
2021/12/02 11:02:01;;;;;;;;;;;;;;;14.64;57.03;98867.56;4997518;27;98029;-59
2021/12/02 11:04:34;;;;;;;;;;;;;;;14.60;56.80;98869.34;4998439;27;98221;-59
2021/12/02 11:07:01;;;;;;;;;;;;;;;14.56;57.09;98863.00;4998229;27;97892;-58
2021/12/02 11:09:32;;;;;;;;;;;;;;;14.52;57.02;98864.78;4997913;27;98318;-58
2021/12/02 11:12:24;;;;;;;;;;;;;;;14.46;56.76;98861.44;4996780;27;98077;-58
2021/12/02 11:15:15;;;;;;;;;;;;;;;14.41;57.07;98859.72;5000571;27;98304;-58
2021/12/02 11:17:46;;;;;;;;;;;;;;;14.37;56.82;98866.94;4998506;27;97942;-58
2021/12/02 11:20:26;;;;;;;;;;;;;;;14.32;57.04;98861.72;4999501;27;98150;-59
2021/12/02 11:23:03;;;;;;;;;;;;;;;14.27;57.03;98867.34;4993073;27;98036;-58
2021/12/02 11:25:29;;;;;;;;;;;;;;;14.22;57.21;98881.88;4980607;27;98065;-58
2021/12/02 11:27:55;;;;;;;;;;;;;;;14.18;57.19;98880.16;4998091;27;107706;-59
2021/12/02 11:30:23;;;;;;;;;;;;;;;14.15;57.31;98880.81;4979677;27;98744;-68
2021/12/02 11:32:53;;;;;;;;;;;;;;;14.10;57.05;98881.78;4997867;27;98463;-68
2021/12/02 11:35:21;;;;;;;;;;;;;;;14.06;57.08;98878.16;4999349;27;98830;-68
2021/12/02 11:37:49;;;;;;;;;;;;;;;14.03;57.22;98884.25;4999254;27;97764;-68
2021/12/02 11:40:21;;;;;;;;;;;;;;;14.00;57.37;98890.31;4999265;27;98341;-67
2021/12/02 11:42:47;;;;;;;;;;;;;;;13.95;57.58;98893.19;4998598;27;98065;-67
2021/12/02 11:45:14;;;;;;;;;;;;;;;13.92;57.22;98893.88;4998638;27;98292;-58
2021/12/02 11:47:40;;;;;;;;;;;;;;;13.89;57.67;98892.59;4999529;27;117933;-67
2021/12/02 11:50:07;;;;;;;;;;;;;;;13.86;57.43;98898.66;4997604;27;127773;-67
2021/12/02 11:52:37;;;;;;;;;;;;;;;13.83;57.17;98903.94;4998814;27;98879;-68
2021/12/02 11:55:07;;;;;;;;;;;;;;;13.77;57.28;98908.75;4998684;27;98120;-68
2021/12/02 11:57:33;;;;;;;;;;;;;;;13.74;57.54;98910.19;5000267;27;97980;-58
2021/12/02 12:00:01;;;;;;;;;;;;;;;13.70;57.54;98922.78;4999292;27;98785;-59
2021/12/02 12:02:27;;;;;;;;;;;;;;;13.69;57.33;98913.06;4999043;27;98851;-58
2021/12/02 12:04:59;;;;;;;;;;;;;;;13.65;57.12;98916.75;4999022;27;98137;-67
2021/12/02 12:07:28;;;;;;;;;;;;;;;13.61;57.52;98908.50;4998596;27;112865;-66
2021/12/02 12:10:21;;;;;;;;;;;;;;;13.58;57.28;98911.06;4966416;27;98945;-67
2021/12/02 12:12:50;;;;;;;;;;;;;;;13.53;57.66;98912.03;5003473;27;98210;-67
2021/12/02 12:15:36;;;;;;;;;;;;;;;13.51;57.45;98917.75;5002381;27;97930;-58
2021/12/02 12:18:03;;;;;;;;;;;;;;;13.49;57.52;98913.78;4979886;27;99185;-68
2021/12/02 12:21:00;;;;;;;;;;;;;;;13.46;57.41;98920.66;4984393;27;99363;-68
2021/12/02 12:23:32;;;;;;;;;;;;;;;13.44;57.55;98916.66;4995820;27;98790;-67
2021/12/02 12:26:09;;;;;;;;;;;;;;;13.42;57.64;98914.28;5001962;27;98100;-58
2021/12/02 12:29:03;;;;;;;;;;;;;;;13.40;57.55;98904.88;5002268;27;97719;-67
2021/12/02 12:31:33;;;;;;;;;;;;;;;13.40;57.36;98915.72;5001330;27;98282;-58
2021/12/02 12:34:00;;;;;;;;;;;;;;;13.39;57.63;98912.22;5002248;27;98122;-58
2021/12/02 12:36:42;;;;;;;;;;;;;;;13.38;57.34;98909.84;5001084;27;98612;-67
2021/12/02 12:39:18;;;;;;;;;;;;;;;13.36;57.29;98914.78;5002716;27;98052;-67
2021/12/02 12:42:06;;;;;;;;;;;;;;;13.33;57.09;98908.13;4994556;27;99017;-59
2021/12/02 12:44:48;;;;;;;;;;;;;;;13.32;57.74;98909.22;5002583;27;99225;-67
2021/12/02 12:47:13;;;;;;;;;;;;;;;13.31;57.52;98912.25;4994152;27;98450;-59
2021/12/02 12:49:39;;;;;;;;;;;;;;;13.31;57.50;98914.97;5003081;27;118399;-67
2021/12/02 12:52:15;;;;;;;;;;;;;;;13.36;57.32;98922.91;5000343;27;127080;-67
2021/12/02 12:54:41;;;;;;;;;;;;;;;13.41;57.65;98926.25;4984043;27;107157;-67
2021/12/02 12:57:08;;;;;;;;;;;;;;;13.46;57.28;98930.69;5001404;27;122484;-67
2021/12/02 12:59:50;;;;;;;;;;;;;;;13.50;57.26;98939.75;5002886;27;97931;-67
2021/12/02 13:02:16;;;;;;;;;;;;;;;13.53;57.21;98927.47;5000940;27;98709;-67
2021/12/02 13:04:54;;;;;;;;;;;;;;;13.55;57.15;98942.25;5002715;27;98108;-67
2021/12/02 13:07:21;;;;;;;;;;;;;;;13.57;57.37;98941.97;5002067;27;99074;-67
2021/12/02 13:10:03;;;;;;;;;;;;;;;13.58;57.27;98943.53;5002289;27;97791;-67
2021/12/02 13:12:47;;;;;;;;;;;;;;;13.59;57.03;98950.53;5001498;27;98218;-67
2021/12/02 13:15:16;;;;;;;;;;;;;;;13.59;57.39;98953.25;4999216;27;98509;-67